sensor_id;sensor_type;location;lat;lon;timestamp;temperature;humidity
22706;DHT22;11520;51.198;4.468;2023-10-13T00:01:20;18.00;99.90
22706;DHT22;11520;51.198;4.468;2023-10-13T00:03:46;18.00;99.90
22706;DHT22;11520;51.198;4.468;2023-10-13T00:06:13;18.00;99.90
22706;DHT22;11520;51.198;4.468;2023-10-13T00:08:41;18.00;99.90
22706;DHT22;11520;51.198;4.468;2023-10-13T00:11:14;17.90;99.90
22706;DHT22;11520;51.198;4.468;2023-10-13T00:13:41;17.90;99.90
22706;DHT22;11520;51.198;4.468;2023-10-13T00:16:18;17.90;99.90
22706;DHT22;11520;51.198;4.468;2023-10-13T00:18:48;18.00;99.90
22706;DHT22;11520;51.198;4.468;2023-10-13T00:21:16;18.00;99.90
22706;DHT22;11520;51.198;4.468;2023-10-13T00:23:46;18.10;99.90
22706;DHT22;11520;51.198;4.468;2023-10-13T00:26:22;18.00;99.90
22706;DHT22;11520;51.198;4.468;2023-10-13T00:28:58;18.00;99.90
22706;DHT22;11520;51.198;4.468;2023-10-13T00:31:26;18.00;99.90
22706;DHT22;11520;51.198;4.468;2023-10-13T00:33:59;18.00;99.90
22706;DHT22;11520;51.198;4.468;2023-10-13T00:36:35;18.00;99.90
22706;DHT22;11520;51.198;4.468;2023-10-13T00:39:02;18.00;99.90
22706;DHT22;11520;51.198;4.468;2023-10-13T00:41:32;18.00;99.90
22706;DHT22;11520;51.198;4.468;2023-10-13T00:44:24;18.00;99.90
22706;DHT22;11520;51.198;4.468;2023-10-13T00:47:13;18.00;99.90
22706;DHT22;11520;51.198;4.468;2023-10-13T00:49:44;18.00;99.90
22706;DHT22;11520;51.198;4.468;2023-10-13T00:52:14;18.00;99.90
22706;DHT22;11520;51.198;4.468;2023-10-13T00:54:42;18.00;99.90
22706;DHT22;11520;51.198;4.468;2023-10-13T00:57:13;18.00;99.90
22706;DHT22;11520;51.198;4.468;2023-10-13T00:59:59;18.00;99.90
22706;DHT22;11520;51.198;4.468;2023-10-13T01:02:25;18.00;99.90
22706;DHT22;11520;51.198;4.468;2023-10-13T01:05:07;18.00;99.90
22706;DHT22;11520;51.198;4.468;2023-10-13T01:07:35;18.00;99.90
22706;DHT22;11520;51.198;4.468;2023-10-13T01:10:04;18.10;99.90
22706;DHT22;11520;51.198;4.468;2023-10-13T01:12:30;18.10;99.90
22706;DHT22;11520;51.198;4.468;2023-10-13T01:14:59;18.00;99.90
22706;DHT22;11520;51.198;4.468;2023-10-13T01:17:33;18.00;99.90
22706;DHT22;11520;51.198;4.468;2023-10-13T01:19:59;18.00;99.90
22706;DHT22;11520;51.198;4.468;2023-10-13T01:22:26;18.00;99.90
22706;DHT22;11520;51.198;4.468;2023-10-13T01:24:54;18.00;99.90
22706;DHT22;11520;51.198;4.468;2023-10-13T01:27:30;18.00;99.90
22706;DHT22;11520;51.198;4.468;2023-10-13T01:29:57;18.00;99.90
22706;DHT22;11520;51.198;4.468;2023-10-13T01:32:31;18.00;99.90
22706;DHT22;11520;51.198;4.468;2023-10-13T01:34:57;18.00;99.90
22706;DHT22;11520;51.198;4.468;2023-10-13T01:37:30;18.00;99.90
22706;DHT22;11520;51.198;4.468;2023-10-13T01:39:56;18.00;99.90
22706;DHT22;11520;51.198;4.468;2023-10-13T01:42:22;18.00;99.90
22706;DHT22;11520;51.198;4.468;2023-10-13T01:44:50;18.00;99.90
22706;DHT22;11520;51.198;4.468;2023-10-13T01:47:16;18.10;99.90
22706;DHT22;11520;51.198;4.468;2023-10-13T01:49:42;18.00;99.90
22706;DHT22;11520;51.198;4.468;2023-10-13T01:52:09;18.10;99.90
22706;DHT22;11520;51.198;4.468;2023-10-13T01:54:38;18.10;99.90
22706;DHT22;11520;51.198;4.468;2023-10-13T01:57:07;18.10;99.90
22706;DHT22;11520;51.198;4.468;2023-10-13T01:59:33;18.10;99.90
22706;DHT22;11520;51.198;4.468;2023-10-13T02:02:07;18.20;99.90
22706;DHT22;11520;51.198;4.468;2023-10-13T02:04:33;18.10;99.90
22706;DHT22;11520;51.198;4.468;2023-10-13T02:06:59;18.20;99.90
22706;DHT22;11520;51.198;4.468;2023-10-13T02:09:24;18.20;99.90
22706;DHT22;11520;51.198;4.468;2023-10-13T02:11:54;18.20;99.90
22706;DHT22;11520;51.198;4.468;2023-10-13T02:14:26;18.20;99.90
22706;DHT22;11520;51.198;4.468;2023-10-13T02:16:52;18.20;99.90
22706;DHT22;11520;51.198;4.468;2023-10-13T02:19:37;18.20;99.90
22706;DHT22;11520;51.198;4.468;2023-10-13T02:22:06;18.10;99.90
22706;DHT22;11520;51.198;4.468;2023-10-13T02:24:35;18.10;99.90
22706;DHT22;11520;51.198;4.468;2023-10-13T02:27:07;18.20;99.90
22706;DHT22;11520;51.198;4.468;2023-10-13T02:29:42;18.20;99.90
22706;DHT22;11520;51.198;4.468;2023-10-13T02:32:12;18.30;99.90
22706;DHT22;11520;51.198;4.468;2023-10-13T02:34:47;18.30;99.90
22706;DHT22;11520;51.198;4.468;2023-10-13T02:37:13;18.30;99.90
22706;DHT22;11520;51.198;4.468;2023-10-13T02:39:42;18.30;99.90
22706;DHT22;11520;51.198;4.468;2023-10-13T02:42:09;18.30;99.90
22706;DHT22;11520;51.198;4.468;2023-10-13T02:44:49;18.30;99.90
22706;DHT22;11520;51.198;4.468;2023-10-13T02:47:16;18.30;99.90
22706;DHT22;11520;51.198;4.468;2023-10-13T02:49:45;18.20;99.90
22706;DHT22;11520;51.198;4.468;2023-10-13T02:52:13;18.20;99.90
22706;DHT22;11520;51.198;4.468;2023-10-13T02:54:40;18.20;99.90
22706;DHT22;11520;51.198;4.468;2023-10-13T02:57:15;18.20;99.90
22706;DHT22;11520;51.198;4.468;2023-10-13T02:59:42;18.20;99.90
22706;DHT22;11520;51.198;4.468;2023-10-13T03:02:23;18.20;99.90
22706;DHT22;11520;51.198;4.468;2023-10-13T03:04:52;18.30;99.90
22706;DHT22;11520;51.198;4.468;2023-10-13T03:07:25;18.30;99.90
22706;DHT22;11520;51.198;4.468;2023-10-13T03:09:54;18.30;99.90
22706;DHT22;11520;51.198;4.468;2023-10-13T03:12:25;18.30;99.90
22706;DHT22;11520;51.198;4.468;2023-10-13T03:14:51;18.30;99.90
22706;DHT22;11520;51.198;4.468;2023-10-13T03:17:22;18.30;99.90
22706;DHT22;11520;51.198;4.468;2023-10-13T03:19:59;18.30;99.90
22706;DHT22;11520;51.198;4.468;2023-10-13T03:22:25;18.20;99.90
22706;DHT22;11520;51.198;4.468;2023-10-13T03:24:59;18.30;99.90
22706;DHT22;11520;51.198;4.468;2023-10-13T03:27:32;18.30;99.90
22706;DHT22;11520;51.198;4.468;2023-10-13T03:30:18;18.30;99.90
22706;DHT22;11520;51.198;4.468;2023-10-13T03:32:46;18.40;99.90
22706;DHT22;11520;51.198;4.468;2023-10-13T03:35:14;18.20;99.90
22706;DHT22;11520;51.198;4.468;2023-10-13T03:37:53;18.20;99.90
22706;DHT22;11520;51.198;4.468;2023-10-13T03:40:20;18.20;99.90
22706;DHT22;11520;51.198;4.468;2023-10-13T03:42:50;18.20;99.90
22706;DHT22;11520;51.198;4.468;2023-10-13T03:45:36;18.20;99.90
22706;DHT22;11520;51.198;4.468;2023-10-13T03:48:12;18.20;99.90
22706;DHT22;11520;51.198;4.468;2023-10-13T03:50:52;18.20;99.90
22706;DHT22;11520;51.198;4.468;2023-10-13T03:53:26;18.20;99.90
22706;DHT22;11520;51.198;4.468;2023-10-13T03:55:52;18.20;99.90
22706;DHT22;11520;51.198;4.468;2023-10-13T03:58:37;18.20;99.90
22706;DHT22;11520;51.198;4.468;2023-10-13T04:01:05;18.20;99.90
22706;DHT22;11520;51.198;4.468;2023-10-13T04:03:31;18.20;99.90
22706;DHT22;11520;51.198;4.468;2023-10-13T04:06:06;18.20;99.90
22706;DHT22;11520;51.198;4.468;2023-10-13T04:08:33;18.20;99.90
22706;DHT22;11520;51.198;4.468;2023-10-13T04:11:08;18.20;99.90
22706;DHT22;11520;51.198;4.468;2023-10-13T04:13:53;18.20;99.90
22706;DHT22;11520;51.198;4.468;2023-10-13T04:16:37;18.30;99.90
22706;DHT22;11520;51.198;4.468;2023-10-13T04:19:13;18.20;99.90
22706;DHT22;11520;51.198;4.468;2023-10-13T04:21:48;18.20;99.90
22706;DHT22;11520;51.198;4.468;2023-10-13T04:24:25;18.20;99.90
22706;DHT22;11520;51.198;4.468;2023-10-13T04:27:23;18.20;99.90
22706;DHT22;11520;51.198;4.468;2023-10-13T04:30:06;18.20;99.90
22706;DHT22;11520;51.198;4.468;2023-10-13T04:32:34;18.30;99.90
22706;DHT22;11520;51.198;4.468;2023-10-13T04:35:31;18.30;99.90
22706;DHT22;11520;51.198;4.468;2023-10-13T04:38:01;18.30;99.90
22706;DHT22;11520;51.198;4.468;2023-10-13T04:40:41;18.30;99.90
22706;DHT22;11520;51.198;4.468;2023-10-13T04:43:23;18.30;99.90
22706;DHT22;11520;51.198;4.468;2023-10-13T04:46:00;18.30;99.90
22706;DHT22;11520;51.198;4.468;2023-10-13T04:48:40;18.30;99.90
22706;DHT22;11520;51.198;4.468;2023-10-13T04:51:12;18.30;99.90
22706;DHT22;11520;51.198;4.468;2023-10-13T04:54:07;18.20;99.90
22706;DHT22;11520;51.198;4.468;2023-10-13T04:56:51;18.20;99.90
22706;DHT22;11520;51.198;4.468;2023-10-13T04:59:35;18.30;99.90
22706;DHT22;11520;51.198;4.468;2023-10-13T05:02:04;18.30;99.90
22706;DHT22;11520;51.198;4.468;2023-10-13T05:04:50;18.30;99.90
22706;DHT22;11520;51.198;4.468;2023-10-13T05:07:31;18.20;99.90
22706;DHT22;11520;51.198;4.468;2023-10-13T05:10:16;18.30;99.90
22706;DHT22;11520;51.198;4.468;2023-10-13T05:13:00;18.30;99.90
22706;DHT22;11520;51.198;4.468;2023-10-13T05:15:48;18.20;99.90
22706;DHT22;11520;51.198;4.468;2023-10-13T05:18:32;18.20;99.90
22706;DHT22;11520;51.198;4.468;2023-10-13T05:21:18;18.20;99.90
22706;DHT22;11520;51.198;4.468;2023-10-13T05:24:03;18.20;99.90
22706;DHT22;11520;51.198;4.468;2023-10-13T05:26:48;18.10;99.90
22706;DHT22;11520;51.198;4.468;2023-10-13T05:29:32;18.10;99.90
22706;DHT22;11520;51.198;4.468;2023-10-13T05:32:17;18.10;99.90
22706;DHT22;11520;51.198;4.468;2023-10-13T05:35:02;18.10;99.90
22706;DHT22;11520;51.198;4.468;2023-10-13T05:37:46;18.10;99.90
22706;DHT22;11520;51.198;4.468;2023-10-13T05:40:30;18.10;99.90
22706;DHT22;11520;51.198;4.468;2023-10-13T05:43:15;18.00;99.90
22706;DHT22;11520;51.198;4.468;2023-10-13T05:46:04;18.10;99.90
22706;DHT22;11520;51.198;4.468;2023-10-13T05:49:02;18.10;99.90
22706;DHT22;11520;51.198;4.468;2023-10-13T05:51:37;18.10;99.90
22706;DHT22;11520;51.198;4.468;2023-10-13T05:54:22;18.10;99.90
22706;DHT22;11520;51.198;4.468;2023-10-13T05:56:49;18.10;99.90
22706;DHT22;11520;51.198;4.468;2023-10-13T05:59:35;18.10;99.90
22706;DHT22;11520;51.198;4.468;2023-10-13T06:02:21;18.10;99.90
22706;DHT22;11520;51.198;4.468;2023-10-13T06:05:07;18.10;99.90
22706;DHT22;11520;51.198;4.468;2023-10-13T06:07:53;18.10;99.90
22706;DHT22;11520;51.198;4.468;2023-10-13T06:10:38;18.10;99.90
22706;DHT22;11520;51.198;4.468;2023-10-13T06:13:23;18.10;99.90
22706;DHT22;11520;51.198;4.468;2023-10-13T06:16:12;18.20;99.90
22706;DHT22;11520;51.198;4.468;2023-10-13T06:18:56;18.20;99.90
22706;DHT22;11520;51.198;4.468;2023-10-13T06:21:41;18.20;99.90
22706;DHT22;11520;51.198;4.468;2023-10-13T06:24:25;18.20;99.90
22706;DHT22;11520;51.198;4.468;2023-10-13T06:27:10;18.30;99.90
22706;DHT22;11520;51.198;4.468;2023-10-13T06:29:56;18.30;99.90
22706;DHT22;11520;51.198;4.468;2023-10-13T06:32:22;18.20;99.90
22706;DHT22;11520;51.198;4.468;2023-10-13T06:34:54;18.20;99.90
22706;DHT22;11520;51.198;4.468;2023-10-13T06:37:27;18.30;99.90
22706;DHT22;11520;51.198;4.468;2023-10-13T06:40:01;18.30;99.90
22706;DHT22;11520;51.198;4.468;2023-10-13T06:42:48;18.30;99.90
22706;DHT22;11520;51.198;4.468;2023-10-13T06:45:14;18.40;99.90
22706;DHT22;11520;51.198;4.468;2023-10-13T06:47:42;18.40;99.90
22706;DHT22;11520;51.198;4.468;2023-10-13T06:50:15;18.40;99.90
22706;DHT22;11520;51.198;4.468;2023-10-13T06:52:47;18.40;99.90
22706;DHT22;11520;51.198;4.468;2023-10-13T06:55:14;18.40;99.90
22706;DHT22;11520;51.198;4.468;2023-10-13T06:57:43;18.40;99.90
22706;DHT22;11520;51.198;4.468;2023-10-13T07:00:14;18.40;99.90
22706;DHT22;11520;51.198;4.468;2023-10-13T07:03:00;18.50;99.90
22706;DHT22;11520;51.198;4.468;2023-10-13T07:05:36;18.50;99.90
22706;DHT22;11520;51.198;4.468;2023-10-13T07:08:05;18.50;99.90
22706;DHT22;11520;51.198;4.468;2023-10-13T07:10:32;18.60;99.90
22706;DHT22;11520;51.198;4.468;2023-10-13T07:13:13;18.60;99.90
22706;DHT22;11520;51.198;4.468;2023-10-13T07:15:39;18.70;99.90
22706;DHT22;11520;51.198;4.468;2023-10-13T07:18:14;18.70;99.90
22706;DHT22;11520;51.198;4.468;2023-10-13T07:20:45;18.80;99.90
22706;DHT22;11520;51.198;4.468;2023-10-13T07:23:12;18.90;99.90
22706;DHT22;11520;51.198;4.468;2023-10-13T07:25:54;18.90;99.90
22706;DHT22;11520;51.198;4.468;2023-10-13T07:28:22;19.00;99.90
22706;DHT22;11520;51.198;4.468;2023-10-13T07:30:48;19.10;99.90
22706;DHT22;11520;51.198;4.468;2023-10-13T07:33:20;19.10;99.90
22706;DHT22;11520;51.198;4.468;2023-10-13T07:36:03;19.20;99.90
22706;DHT22;11520;51.198;4.468;2023-10-13T07:38:47;19.20;99.90
22706;DHT22;11520;51.198;4.468;2023-10-13T07:41:14;19.30;99.90
22706;DHT22;11520;51.198;4.468;2023-10-13T07:43:42;19.30;99.90
22706;DHT22;11520;51.198;4.468;2023-10-13T07:46:09;19.30;99.90
22706;DHT22;11520;51.198;4.468;2023-10-13T07:48:39;19.30;99.90
22706;DHT22;11520;51.198;4.468;2023-10-13T07:51:07;19.40;99.90
22706;DHT22;11520;51.198;4.468;2023-10-13T07:53:39;19.40;99.90
22706;DHT22;11520;51.198;4.468;2023-10-13T07:56:12;19.60;99.90
22706;DHT22;11520;51.198;4.468;2023-10-13T07:58:44;19.70;99.90
22706;DHT22;11520;51.198;4.468;2023-10-13T08:01:29;19.80;99.90
22706;DHT22;11520;51.198;4.468;2023-10-13T08:03:55;20.00;99.90
22706;DHT22;11520;51.198;4.468;2023-10-13T08:06:40;20.00;99.90
22706;DHT22;11520;51.198;4.468;2023-10-13T08:09:07;20.10;99.90
22706;DHT22;11520;51.198;4.468;2023-10-13T08:11:33;20.20;99.90
22706;DHT22;11520;51.198;4.468;2023-10-13T08:14:02;20.20;99.90
22706;DHT22;11520;51.198;4.468;2023-10-13T08:16:39;20.40;99.90
22706;DHT22;11520;51.198;4.468;2023-10-13T08:19:17;20.50;99.90
22706;DHT22;11520;51.198;4.468;2023-10-13T08:21:46;20.70;99.90
22706;DHT22;11520;51.198;4.468;2023-10-13T08:24:23;20.80;99.90
22706;DHT22;11520;51.198;4.468;2023-10-13T08:27:07;20.80;99.90
22706;DHT22;11520;51.198;4.468;2023-10-13T08:29:52;20.80;99.90
22706;DHT22;11520;51.198;4.468;2023-10-13T08:32:28;20.80;99.90
22706;DHT22;11520;51.198;4.468;2023-10-13T08:37:23;20.80;99.90
22706;DHT22;11520;51.198;4.468;2023-10-13T08:39:49;20.80;99.90
22706;DHT22;11520;51.198;4.468;2023-10-13T08:42:31;20.90;99.90
22706;DHT22;11520;51.198;4.468;2023-10-13T08:45:21;21.00;99.90
22706;DHT22;11520;51.198;4.468;2023-10-13T08:47:56;21.00;99.90
22706;DHT22;11520;51.198;4.468;2023-10-13T08:50:40;21.10;99.90
22706;DHT22;11520;51.198;4.468;2023-10-13T08:56:06;21.20;99.90
22706;DHT22;11520;51.198;4.468;2023-10-13T08:58:45;21.20;99.90
22706;DHT22;11520;51.198;4.468;2023-10-13T09:01:29;21.20;99.90
22706;DHT22;11520;51.198;4.468;2023-10-13T09:04:10;21.30;99.90
22706;DHT22;11520;51.198;4.468;2023-10-13T09:06:55;21.30;99.90
22706;DHT22;11520;51.198;4.468;2023-10-13T09:09:44;21.90;99.90
22706;DHT22;11520;51.198;4.468;2023-10-13T09:14:52;22.50;99.90
22706;DHT22;11520;51.198;4.468;2023-10-13T09:17:25;22.70;99.90
22706;DHT22;11520;51.198;4.468;2023-10-13T09:23:10;22.50;99.90
22706;DHT22;11520;51.198;4.468;2023-10-13T09:25:40;22.20;99.90
22706;DHT22;11520;51.198;4.468;2023-10-13T09:28:20;22.20;99.90
22706;DHT22;11520;51.198;4.468;2023-10-13T09:30:49;22.20;99.90
22706;DHT22;11520;51.198;4.468;2023-10-13T09:33:23;22.10;99.90
22706;DHT22;11520;51.198;4.468;2023-10-13T09:35:59;22.10;99.90
22706;DHT22;11520;51.198;4.468;2023-10-13T09:38:35;22.10;99.90
22706;DHT22;11520;51.198;4.468;2023-10-13T09:41:09;22.10;99.90
22706;DHT22;11520;51.198;4.468;2023-10-13T09:43:44;22.00;99.90
22706;DHT22;11520;51.198;4.468;2023-10-13T09:46:20;21.90;99.90
22706;DHT22;11520;51.198;4.468;2023-10-13T09:48:49;21.80;99.90
22706;DHT22;11520;51.198;4.468;2023-10-13T09:51:30;21.80;99.90
22706;DHT22;11520;51.198;4.468;2023-10-13T09:57:12;22.00;99.90
22706;DHT22;11520;51.198;4.468;2023-10-13T09:59:49;21.80;99.90
22706;DHT22;11520;51.198;4.468;2023-10-13T10:02:18;21.80;99.90
22706;DHT22;11520;51.198;4.468;2023-10-13T10:04:56;21.80;99.90
22706;DHT22;11520;51.198;4.468;2023-10-13T10:07:38;21.70;99.90
22706;DHT22;11520;51.198;4.468;2023-10-13T10:10:05;21.60;99.90
22706;DHT22;11520;51.198;4.468;2023-10-13T10:12:50;21.60;99.90
22706;DHT22;11520;51.198;4.468;2023-10-13T10:15:32;21.50;99.90
22706;DHT22;11520;51.198;4.468;2023-10-13T10:18:02;21.40;99.90
22706;DHT22;11520;51.198;4.468;2023-10-13T10:20:32;21.40;99.90
22706;DHT22;11520;51.198;4.468;2023-10-13T10:23:24;21.40;99.90
22706;DHT22;11520;51.198;4.468;2023-10-13T10:25:51;21.30;99.90
22706;DHT22;11520;51.198;4.468;2023-10-13T10:28:18;21.20;99.90
22706;DHT22;11520;51.198;4.468;2023-10-13T10:30:45;21.20;99.90
22706;DHT22;11520;51.198;4.468;2023-10-13T10:33:12;21.20;99.90
22706;DHT22;11520;51.198;4.468;2023-10-13T10:35:40;21.30;99.90
22706;DHT22;11520;51.198;4.468;2023-10-13T10:40:57;21.30;99.90
22706;DHT22;11520;51.198;4.468;2023-10-13T10:46:27;21.30;99.90
22706;DHT22;11520;51.198;4.468;2023-10-13T10:48:57;21.30;99.90
22706;DHT22;11520;51.198;4.468;2023-10-13T10:51:27;21.20;99.90
22706;DHT22;11520;51.198;4.468;2023-10-13T10:53:57;21.30;99.90
22706;DHT22;11520;51.198;4.468;2023-10-13T10:56:25;21.30;99.90
22706;DHT22;11520;51.198;4.468;2023-10-13T10:59:05;21.40;99.90
22706;DHT22;11520;51.198;4.468;2023-10-13T11:01:33;21.40;99.90
22706;DHT22;11520;51.198;4.468;2023-10-13T11:04:14;21.40;99.90
22706;DHT22;11520;51.198;4.468;2023-10-13T11:06:54;21.50;99.90
22706;DHT22;11520;51.198;4.468;2023-10-13T11:09:38;21.50;99.90
22706;DHT22;11520;51.198;4.468;2023-10-13T11:12:12;21.60;99.90
22706;DHT22;11520;51.198;4.468;2023-10-13T11:14:42;21.60;99.90
22706;DHT22;11520;51.198;4.468;2023-10-13T11:17:22;21.70;99.90
22706;DHT22;11520;51.198;4.468;2023-10-13T11:20:15;21.70;99.90
22706;DHT22;11520;51.198;4.468;2023-10-13T11:22:47;21.70;99.90
22706;DHT22;11520;51.198;4.468;2023-10-13T11:25:24;21.80;99.90
22706;DHT22;11520;51.198;4.468;2023-10-13T11:27:56;21.90;99.90
22706;DHT22;11520;51.198;4.468;2023-10-13T11:30:24;22.00;99.90
22706;DHT22;11520;51.198;4.468;2023-10-13T11:32:58;22.00;99.90
22706;DHT22;11520;51.198;4.468;2023-10-13T11:35:27;22.00;99.90
22706;DHT22;11520;51.198;4.468;2023-10-13T11:38:13;22.00;99.90
22706;DHT22;11520;51.198;4.468;2023-10-13T11:40:40;22.00;99.90
22706;DHT22;11520;51.198;4.468;2023-10-13T11:43:24;22.10;99.90
22706;DHT22;11520;51.198;4.468;2023-10-13T11:45:52;22.10;99.90
22706;DHT22;11520;51.198;4.468;2023-10-13T11:48:39;22.20;99.90
22706;DHT22;11520;51.198;4.468;2023-10-13T11:51:10;22.20;99.90
22706;DHT22;11520;51.198;4.468;2023-10-13T11:53:50;22.30;99.90
22706;DHT22;11520;51.198;4.468;2023-10-13T11:56:19;22.50;99.90
22706;DHT22;11520;51.198;4.468;2023-10-13T11:58:46;22.50;99.90
22706;DHT22;11520;51.198;4.468;2023-10-13T12:01:16;22.50;99.90
22706;DHT22;11520;51.198;4.468;2023-10-13T12:03:46;22.50;99.90
22706;DHT22;11520;51.198;4.468;2023-10-13T12:06:33;22.50;99.90
22706;DHT22;11520;51.198;4.468;2023-10-13T12:09:10;22.50;99.90
22706;DHT22;11520;51.198;4.468;2023-10-13T12:11:49;22.50;99.90
22706;DHT22;11520;51.198;4.468;2023-10-13T12:14:20;22.50;99.90
22706;DHT22;11520;51.198;4.468;2023-10-13T12:17:27;22.50;99.90
22706;DHT22;11520;51.198;4.468;2023-10-13T12:20:00;22.50;99.90
22706;DHT22;11520;51.198;4.468;2023-10-13T12:22:26;22.50;99.90
22706;DHT22;11520;51.198;4.468;2023-10-13T12:25:01;22.50;99.90
22706;DHT22;11520;51.198;4.468;2023-10-13T12:27:47;22.50;99.90
22706;DHT22;11520;51.198;4.468;2023-10-13T12:30:17;22.50;99.90
22706;DHT22;11520;51.198;4.468;2023-10-13T12:32:56;22.50;99.90
22706;DHT22;11520;51.198;4.468;2023-10-13T12:35:34;22.50;99.90
22706;DHT22;11520;51.198;4.468;2023-10-13T12:38:03;22.50;99.90
22706;DHT22;11520;51.198;4.468;2023-10-13T12:40:33;22.50;99.90
22706;DHT22;11520;51.198;4.468;2023-10-13T12:43:18;22.60;99.90
22706;DHT22;11520;51.198;4.468;2023-10-13T12:46:02;22.60;99.90
22706;DHT22;11520;51.198;4.468;2023-10-13T12:48:46;22.70;99.90
22706;DHT22;11520;51.198;4.468;2023-10-13T12:51:22;22.80;99.90
22706;DHT22;11520;51.198;4.468;2023-10-13T12:53:55;22.90;99.90
22706;DHT22;11520;51.198;4.468;2023-10-13T12:56:31;22.90;99.90
22706;DHT22;11520;51.198;4.468;2023-10-13T12:58:57;22.90;99.90
22706;DHT22;11520;51.198;4.468;2023-10-13T13:01:24;23.00;99.90
22706;DHT22;11520;51.198;4.468;2023-10-13T13:03:52;22.90;99.90
22706;DHT22;11520;51.198;4.468;2023-10-13T13:06:25;23.00;99.90
22706;DHT22;11520;51.198;4.468;2023-10-13T13:08:55;23.00;99.90
22706;DHT22;11520;51.198;4.468;2023-10-13T13:11:22;23.00;99.90
22706;DHT22;11520;51.198;4.468;2023-10-13T13:13:49;23.00;99.90
22706;DHT22;11520;51.198;4.468;2023-10-13T13:16:16;22.90;99.90
22706;DHT22;11520;51.198;4.468;2023-10-13T13:18:53;22.90;99.90
22706;DHT22;11520;51.198;4.468;2023-10-13T13:21:23;22.90;99.90
22706;DHT22;11520;51.198;4.468;2023-10-13T13:23:50;22.90;99.90
22706;DHT22;11520;51.198;4.468;2023-10-13T13:26:17;22.90;99.90
22706;DHT22;11520;51.198;4.468;2023-10-13T13:28:47;23.00;99.90
22706;DHT22;11520;51.198;4.468;2023-10-13T13:31:21;23.00;99.90
22706;DHT22;11520;51.198;4.468;2023-10-13T13:33:57;23.10;99.90
22706;DHT22;11520;51.198;4.468;2023-10-13T13:36:24;23.10;99.90
22706;DHT22;11520;51.198;4.468;2023-10-13T13:38:57;23.10;99.90
22706;DHT22;11520;51.198;4.468;2023-10-13T13:41:25;23.10;99.90
22706;DHT22;11520;51.198;4.468;2023-10-13T13:43:53;23.20;99.90
22706;DHT22;11520;51.198;4.468;2023-10-13T13:46:25;23.20;99.90
22706;DHT22;11520;51.198;4.468;2023-10-13T13:48:58;23.30;99.90
22706;DHT22;11520;51.198;4.468;2023-10-13T13:51:29;23.30;99.90
22706;DHT22;11520;51.198;4.468;2023-10-13T13:53:58;23.30;99.90
22706;DHT22;11520;51.198;4.468;2023-10-13T13:56:25;23.30;99.90
22706;DHT22;11520;51.198;4.468;2023-10-13T13:58:54;23.30;99.90
22706;DHT22;11520;51.198;4.468;2023-10-13T14:01:21;23.30;99.90
22706;DHT22;11520;51.198;4.468;2023-10-13T14:03:48;23.30;99.90
22706;DHT22;11520;51.198;4.468;2023-10-13T14:06:19;23.30;99.90
22706;DHT22;11520;51.198;4.468;2023-10-13T14:08:56;23.20;99.90
22706;DHT22;11520;51.198;4.468;2023-10-13T14:11:30;23.20;99.90
22706;DHT22;11520;51.198;4.468;2023-10-13T14:14:15;23.30;99.90
22706;DHT22;11520;51.198;4.468;2023-10-13T14:17:02;23.20;99.90
22706;DHT22;11520;51.198;4.468;2023-10-13T14:19:29;23.10;99.90
22706;DHT22;11520;51.198;4.468;2023-10-13T14:22:00;23.10;99.90
22706;DHT22;11520;51.198;4.468;2023-10-13T14:24:37;23.00;99.90
22706;DHT22;11520;51.198;4.468;2023-10-13T14:27:13;23.00;99.90
22706;DHT22;11520;51.198;4.468;2023-10-13T14:29:51;22.90;99.90
22706;DHT22;11520;51.198;4.468;2023-10-13T14:32:23;22.80;99.90
22706;DHT22;11520;51.198;4.468;2023-10-13T14:34:54;22.70;99.90
22706;DHT22;11520;51.198;4.468;2023-10-13T14:37:26;22.60;99.90
22706;DHT22;11520;51.198;4.468;2023-10-13T14:39:55;22.60;99.90
22706;DHT22;11520;51.198;4.468;2023-10-13T14:42:25;22.50;99.90
22706;DHT22;11520;51.198;4.468;2023-10-13T14:44:52;22.50;99.90
22706;DHT22;11520;51.198;4.468;2023-10-13T14:47:25;22.50;99.90
22706;DHT22;11520;51.198;4.468;2023-10-13T14:52:22;22.40;99.90
22706;DHT22;11520;51.198;4.468;2023-10-13T14:54:48;22.40;99.90
22706;DHT22;11520;51.198;4.468;2023-10-13T14:57:23;22.40;99.90
22706;DHT22;11520;51.198;4.468;2023-10-13T14:59:53;22.40;99.90
22706;DHT22;11520;51.198;4.468;2023-10-13T15:02:20;22.30;99.90
22706;DHT22;11520;51.198;4.468;2023-10-13T15:04:47;22.20;99.90
22706;DHT22;11520;51.198;4.468;2023-10-13T15:07:15;22.20;99.90
22706;DHT22;11520;51.198;4.468;2023-10-13T15:09:44;22.20;99.90
22706;DHT22;11520;51.198;4.468;2023-10-13T15:12:11;22.10;99.90
22706;DHT22;11520;51.198;4.468;2023-10-13T15:14:40;22.00;99.90
22706;DHT22;11520;51.198;4.468;2023-10-13T15:17:09;22.00;99.90
22706;DHT22;11520;51.198;4.468;2023-10-13T15:19:38;22.00;99.90
22706;DHT22;11520;51.198;4.468;2023-10-13T15:22:05;21.90;99.90
22706;DHT22;11520;51.198;4.468;2023-10-13T15:24:34;21.80;99.90
22706;DHT22;11520;51.198;4.468;2023-10-13T15:27:10;21.80;99.90
22706;DHT22;11520;51.198;4.468;2023-10-13T15:29:36;21.90;99.90
22706;DHT22;11520;51.198;4.468;2023-10-13T15:32:02;21.90;99.90
22706;DHT22;11520;51.198;4.468;2023-10-13T15:34:28;21.80;99.90
22706;DHT22;11520;51.198;4.468;2023-10-13T15:36:55;21.80;99.90
22706;DHT22;11520;51.198;4.468;2023-10-13T15:39:24;21.80;99.90
22706;DHT22;11520;51.198;4.468;2023-10-13T15:41:57;21.80;99.90
22706;DHT22;11520;51.198;4.468;2023-10-13T15:44:28;21.80;99.90
22706;DHT22;11520;51.198;4.468;2023-10-13T15:46:57;21.70;99.90
22706;DHT22;11520;51.198;4.468;2023-10-13T15:49:23;21.70;99.90
22706;DHT22;11520;51.198;4.468;2023-10-13T15:51:49;21.70;99.90
22706;DHT22;11520;51.198;4.468;2023-10-13T15:54:17;21.60;99.90
22706;DHT22;11520;51.198;4.468;2023-10-13T15:56:43;21.60;99.90
22706;DHT22;11520;51.198;4.468;2023-10-13T15:59:10;21.60;99.90
22706;DHT22;11520;51.198;4.468;2023-10-13T16:01:36;21.50;99.90
22706;DHT22;11520;51.198;4.468;2023-10-13T16:04:05;21.50;99.90
22706;DHT22;11520;51.198;4.468;2023-10-13T16:06:40;21.50;99.90
22706;DHT22;11520;51.198;4.468;2023-10-13T16:09:13;21.50;99.90
22706;DHT22;11520;51.198;4.468;2023-10-13T16:11:49;21.40;99.90
22706;DHT22;11520;51.198;4.468;2023-10-13T16:14:14;21.40;99.90
22706;DHT22;11520;51.198;4.468;2023-10-13T16:16:48;21.40;99.90
22706;DHT22;11520;51.198;4.468;2023-10-13T16:19:18;21.30;99.90
22706;DHT22;11520;51.198;4.468;2023-10-13T16:21:47;21.30;99.90
22706;DHT22;11520;51.198;4.468;2023-10-13T16:24:13;21.30;99.90
22706;DHT22;11520;51.198;4.468;2023-10-13T16:26:46;21.30;99.90
22706;DHT22;11520;51.198;4.468;2023-10-13T16:29:18;21.20;99.90
22706;DHT22;11520;51.198;4.468;2023-10-13T16:31:45;21.10;99.90
22706;DHT22;11520;51.198;4.468;2023-10-13T16:34:17;20.90;99.90